createdAt,value
2023-03-29T00:00:14.279Z,10.41
2023-03-29T00:02:42.873Z,10.30
2023-03-29T00:05:12.537Z,10.50
2023-03-29T00:07:39.867Z,10.49
2023-03-29T00:10:10.269Z,10.51
2023-03-29T00:12:40.726Z,10.57
2023-03-29T00:15:09.216Z,10.52
2023-03-29T00:17:36.727Z,10.54
2023-03-29T00:20:07.143Z,10.45
2023-03-29T00:22:34.523Z,10.46
2023-03-29T00:25:02.020Z,10.54
2023-03-29T00:27:30.575Z,10.59
2023-03-29T00:29:58.161Z,10.49
2023-03-29T00:32:26.621Z,10.53
2023-03-29T00:34:54.873Z,10.58
2023-03-29T00:37:27.130Z,10.50
2023-03-29T00:39:54.605Z,10.54
2023-03-29T00:42:22.345Z,10.50
2023-03-29T00:44:55.695Z,10.46
2023-03-29T00:47:31.662Z,10.48
2023-03-29T00:50:08.855Z,10.55
2023-03-29T00:53:15.333Z,10.54
2023-03-29T00:55:59.856Z,10.43
2023-03-29T00:58:33.009Z,10.29
2023-03-29T01:01:11.136Z,10.28
2023-03-29T01:03:46.805Z,10.24
2023-03-29T01:06:19.845Z,10.29
2023-03-29T01:08:58.360Z,10.23
2023-03-29T01:11:40.106Z,10.06
2023-03-29T01:14:15.659Z,9.99
2023-03-29T01:16:43.537Z,10.02
2023-03-29T01:19:16.092Z,10.04
2023-03-29T01:21:45.574Z,10.14
2023-03-29T01:24:32.515Z,9.78
2023-03-29T01:27:06.735Z,9.93
2023-03-29T01:29:57.492Z,9.92
2023-03-29T01:32:35.659Z,9.88
2023-03-29T01:35:16.296Z,9.98
2023-03-29T01:37:57.005Z,9.93
2023-03-29T01:40:28.942Z,9.80
2023-03-29T01:43:26.817Z,9.73
2023-03-29T01:46:19.262Z,9.72
2023-03-29T01:48:49.604Z,9.78
2023-03-29T01:51:21.276Z,9.76
2023-03-29T01:54:01.514Z,9.51
2023-03-29T01:56:33.606Z,9.55
2023-03-29T01:59:09.656Z,9.60
2023-03-29T02:01:41.610Z,9.41
2023-03-29T02:04:14.609Z,9.39
2023-03-29T02:06:43.136Z,9.52
2023-03-29T02:09:10.808Z,9.50
2023-03-29T02:11:38.779Z,9.50
2023-03-29T02:14:06.740Z,9.46
2023-03-29T02:16:37.921Z,9.48
2023-03-29T02:19:07.992Z,9.29
2023-03-29T02:21:48.550Z,9.28
2023-03-29T02:24:18.390Z,9.40
2023-03-29T02:26:46.563Z,9.31
2023-03-29T02:29:14.174Z,9.27
2023-03-29T02:31:43.937Z,9.21
2023-03-29T02:34:22.250Z,9.32
2023-03-29T02:37:00.234Z,9.56
2023-03-29T02:39:32.486Z,9.51
2023-03-29T02:42:00.716Z,9.47
2023-03-29T02:44:31.805Z,9.46
2023-03-29T02:47:16.434Z,9.49
2023-03-29T02:49:44.506Z,9.44
2023-03-29T02:52:14.615Z,9.43
2023-03-29T02:54:45.551Z,9.32
2023-03-29T02:57:13.656Z,9.39
2023-03-29T02:59:44.247Z,9.41
2023-03-29T03:02:11.989Z,9.42
2023-03-29T03:04:40.031Z,9.48
2023-03-29T03:07:07.780Z,9.38
2023-03-29T03:09:35.759Z,9.31
2023-03-29T03:12:03.310Z,9.34
2023-03-29T03:14:30.709Z,9.43
2023-03-29T03:17:02.417Z,9.51
2023-03-29T03:19:50.046Z,9.24
2023-03-29T03:22:17.790Z,9.31
2023-03-29T03:24:46.433Z,9.32
2023-03-29T03:41:26.573Z,9.32
2023-03-29T03:43:54.862Z,9.47
2023-03-29T03:46:23.417Z,9.35
2023-03-29T03:48:51.699Z,9.23
2023-03-29T03:51:31.500Z,9.32
2023-03-29T03:53:59.440Z,9.44
2023-03-29T03:56:36.108Z,9.32
2023-03-29T03:59:32.970Z,9.17
2023-03-29T04:02:05.114Z,9.18
2023-03-29T04:04:33.080Z,9.30
2023-03-29T04:07:13.332Z,9.53
2023-03-29T04:09:56.859Z,9.52
2023-03-29T04:12:37.001Z,9.72
2023-03-29T04:15:08.992Z,9.75
2023-03-29T04:18:00.243Z,9.88
2023-03-29T04:20:34.035Z,9.90
2023-03-29T04:23:02.488Z,9.92
2023-03-29T04:25:30.872Z,9.75
2023-03-29T04:28:24.509Z,9.79
2023-03-29T04:31:03.661Z,9.69
2023-03-29T04:33:54.457Z,9.77
2023-03-29T04:36:22.129Z,9.81
2023-03-29T04:38:52.545Z,9.84
2023-03-29T04:41:21.182Z,9.88
2023-03-29T04:44:08.705Z,9.69
2023-03-29T04:46:38.169Z,9.81
2023-03-29T04:49:21.226Z,9.85
2023-03-29T04:51:52.376Z,10.00
2023-03-29T04:54:27.132Z,10.02
2023-03-29T04:57:14.540Z,10.07
2023-03-29T04:59:59.690Z,10.19
2023-03-29T05:02:49.843Z,10.34
2023-03-29T05:05:19.409Z,10.34
2023-03-29T05:07:49.498Z,10.51
2023-03-29T05:10:22.047Z,10.43
2023-03-29T05:12:54.402Z,10.69
2023-03-29T05:15:23.956Z,10.84
2023-03-29T05:17:52.332Z,10.82
2023-03-29T05:20:22.042Z,10.59
2023-03-29T05:22:50.704Z,10.53
2023-03-29T05:25:38.140Z,10.60
2023-03-29T05:28:07.648Z,10.62
2023-03-29T05:30:36.047Z,10.66
2023-03-29T05:33:16.822Z,10.80
2023-03-29T05:35:45.120Z,10.89
2023-03-29T05:38:14.095Z,10.87
2023-03-29T05:40:43.230Z,11.12
2023-03-29T05:43:16.061Z,11.09
2023-03-29T05:46:21.161Z,10.89
2023-03-29T05:48:53.263Z,11.02
2023-03-29T05:51:27.758Z,11.02
2023-03-29T05:53:56.664Z,11.33
2023-03-29T05:56:24.783Z,11.25
2023-03-29T05:58:55.149Z,11.48
2023-03-29T06:01:25.066Z,11.52
2023-03-29T06:04:01.121Z,11.76
2023-03-29T06:06:37.605Z,11.57
2023-03-29T06:09:56.303Z,11.76
2023-03-29T06:12:25.849Z,11.94
2023-03-29T06:15:05.258Z,12.03
2023-03-29T06:17:49.247Z,12.22
2023-03-29T06:20:17.772Z,12.43
2023-03-29T06:22:55.546Z,12.40
2023-03-29T06:25:34.239Z,12.45
2023-03-29T06:28:06.654Z,12.54
2023-03-29T06:37:14.713Z,12.89
2023-03-29T06:40:13.340Z,13.06
2023-03-29T06:43:05.068Z,12.92
2023-03-29T06:46:33.163Z,13.14
2023-03-29T06:49:30.105Z,13.05
2023-03-29T06:52:14.761Z,13.18
2023-03-29T06:54:48.236Z,13.20
2023-03-29T06:57:24.701Z,13.37
2023-03-29T07:00:31.341Z,13.86
2023-03-29T07:03:53.340Z,13.75
2023-03-29T07:06:28.273Z,13.69
2023-03-29T07:09:14.372Z,13.62
2023-03-29T07:12:31.823Z,13.72
2023-03-29T07:15:16.152Z,13.91
2023-03-29T07:18:21.119Z,14.03
2023-03-29T07:25:28.387Z,14.23
2023-03-29T07:31:46.828Z,14.31
2023-03-29T07:41:21.076Z,14.33
2023-03-29T07:44:06.023Z,14.66
2023-03-29T07:46:48.311Z,14.98
2023-03-29T07:49:19.814Z,15.04
2023-03-29T07:51:52.547Z,15.12
2023-03-29T07:54:20.710Z,14.94
2023-03-29T07:56:53.810Z,14.87
2023-03-29T07:59:44.550Z,15.05
2023-03-29T08:02:21.698Z,14.89
2023-03-29T08:04:54.752Z,14.85
2023-03-29T08:07:30.914Z,14.93
2023-03-29T08:10:06.135Z,15.23
2023-03-29T08:12:57.104Z,15.45
2023-03-29T08:15:51.576Z,15.62
2023-03-29T08:19:01.796Z,15.80
2023-03-29T08:21:44.687Z,15.77
2023-03-29T08:24:13.580Z,15.99
2023-03-29T08:26:51.629Z,15.87
2023-03-29T08:32:34.390Z,15.86
2023-03-29T08:35:05.125Z,16.21
2023-03-29T08:37:39.934Z,16.24
2023-03-29T08:40:08.709Z,16.16
2023-03-29T08:43:10.749Z,16.44
2023-03-29T08:46:15.274Z,16.17
2023-03-29T08:48:54.203Z,16.33
2023-03-29T08:51:24.973Z,16.11
2023-03-29T08:54:17.916Z,16.02
2023-03-29T08:57:22.029Z,15.88
2023-03-29T09:00:00.472Z,15.95
2023-03-29T09:02:33.953Z,15.93
2023-03-29T09:05:23.645Z,15.91
2023-03-29T09:07:58.677Z,15.94
2023-03-29T09:10:38.138Z,16.04
2023-03-29T09:13:25.599Z,16.05
2023-03-29T09:16:00.330Z,16.08
2023-03-29T09:19:05.226Z,16.10
2023-03-29T09:21:50.245Z,16.13
2023-03-29T09:24:34.932Z,16.19
2023-03-29T09:27:27.633Z,16.27
2023-03-29T09:30:40.542Z,16.30
2023-03-29T09:33:12.057Z,16.20
2023-03-29T09:36:13.390Z,15.97
2023-03-29T09:38:47.714Z,16.10
2023-03-29T09:41:24.520Z,16.15
2023-03-29T09:43:57.123Z,15.90
2023-03-29T09:46:51.307Z,16.14
2023-03-29T09:49:30.017Z,16.23
2023-03-29T09:52:04.495Z,16.18
2023-03-29T09:54:33.664Z,16.04
2023-03-29T09:57:38.767Z,16.13
2023-03-29T10:00:11.606Z,16.15
2023-03-29T10:02:55.509Z,16.31
2023-03-29T10:05:33.244Z,16.31
2023-03-29T10:08:04.344Z,16.36
2023-03-29T10:11:07.343Z,16.57
2023-03-29T10:13:48.526Z,16.48
2023-03-29T10:16:54.007Z,16.70
2023-03-29T10:19:24.021Z,16.83
2023-03-29T10:21:53.496Z,16.84
2023-03-29T10:24:27.119Z,17.01
2023-03-29T10:27:04.030Z,16.98
2023-03-29T10:29:51.608Z,17.09
2023-03-29T10:32:37.750Z,16.82
2023-03-29T10:35:21.065Z,16.50
2023-03-29T10:37:56.699Z,16.60
2023-03-29T10:40:33.947Z,16.78
2023-03-29T10:46:13.679Z,16.70
2023-03-29T10:48:48.320Z,16.74
2023-03-29T10:51:21.128Z,16.63
2023-03-29T10:53:54.622Z,16.35
2023-03-29T10:56:26.559Z,16.48
2023-03-29T10:59:23.681Z,16.48
2023-03-29T11:02:14.548Z,16.55
2023-03-29T11:04:57.246Z,16.44
2023-03-29T11:07:44.682Z,16.43
2023-03-29T11:10:37.366Z,16.30
2023-03-29T11:13:18.142Z,16.48
2023-03-29T11:15:46.841Z,16.57
2023-03-29T11:18:28.083Z,16.66
2023-03-29T11:21:14.731Z,16.49
2023-03-29T11:23:58.302Z,16.68
2023-03-29T11:26:46.936Z,16.59
2023-03-29T11:29:23.549Z,16.67
2023-03-29T11:31:57.376Z,16.78
2023-03-29T11:34:25.022Z,16.90
2023-03-29T11:37:08.291Z,16.97
2023-03-29T11:40:04.123Z,17.01
2023-03-29T11:42:55.006Z,17.09
2023-03-29T11:45:47.314Z,16.71
2023-03-29T11:48:24.755Z,16.89
2023-03-29T11:51:11.617Z,17.06
2023-03-29T11:54:00.988Z,16.93
2023-03-29T11:56:43.139Z,16.93
2023-03-29T11:59:23.738Z,17.13
2023-03-29T12:02:05.337Z,17.14
2023-03-29T12:04:42.620Z,17.12
2023-03-29T12:07:17.728Z,17.37
2023-03-29T12:09:57.009Z,17.52
2023-03-29T12:12:30.899Z,17.53
2023-03-29T12:15:34.699Z,17.63
2023-03-29T12:18:42.158Z,17.72
2023-03-29T12:21:14.900Z,17.68
2023-03-29T12:24:03.869Z,17.61
2023-03-29T12:26:46.758Z,17.48
2023-03-29T12:29:32.649Z,17.49
2023-03-29T12:32:25.330Z,17.41
2023-03-29T12:35:29.397Z,17.31
2023-03-29T12:38:25.161Z,17.00
2023-03-29T12:41:19.429Z,16.99
2023-03-29T12:44:15.502Z,16.82
2023-03-29T12:46:57.489Z,16.86
2023-03-29T12:49:34.535Z,16.90
2023-03-29T12:52:07.931Z,16.86
2023-03-29T12:54:35.780Z,16.86
2023-03-29T12:57:22.709Z,16.83
2023-03-29T12:59:51.038Z,16.85
2023-03-29T13:02:19.098Z,16.78
2023-03-29T13:04:56.856Z,16.66
2023-03-29T13:07:27.002Z,16.74
2023-03-29T13:09:57.471Z,16.70
2023-03-29T13:12:46.318Z,16.73
2023-03-29T13:15:19.644Z,16.69
2023-03-29T13:18:11.711Z,16.75
2023-03-29T13:21:04.401Z,16.78
2023-03-29T13:23:51.264Z,16.78
2023-03-29T13:26:56.777Z,16.82
2023-03-29T13:29:31.083Z,16.80
2023-03-29T13:32:27.598Z,16.78
2023-03-29T13:35:14.824Z,16.81
2023-03-29T13:38:15.530Z,16.79
2023-03-29T13:41:05.600Z,16.79
2023-03-29T13:43:36.999Z,16.76
2023-03-29T13:46:14.349Z,16.71
2023-03-29T13:48:41.899Z,16.70
2023-03-29T13:51:18.709Z,16.58
2023-03-29T13:53:49.246Z,16.51
2023-03-29T13:56:22.497Z,16.51
2023-03-29T13:58:54.669Z,16.58
2023-03-29T14:01:40.521Z,16.69
2023-03-29T14:04:13.290Z,16.64
2023-03-29T14:06:46.469Z,16.50
2023-03-29T14:09:16.437Z,16.50
2023-03-29T14:11:46.876Z,16.33
2023-03-29T14:14:15.028Z,16.35
2023-03-29T14:16:42.900Z,16.27
2023-03-29T14:19:29.099Z,16.18
2023-03-29T14:21:58.456Z,16.10
2023-03-29T14:24:28.913Z,16.13
2023-03-29T14:26:56.909Z,16.07
2023-03-29T14:29:30.524Z,16.09
2023-03-29T14:32:27.269Z,16.12
2023-03-29T14:34:54.759Z,16.13
2023-03-29T14:37:25.589Z,16.11
2023-03-29T14:39:53.942Z,16.12
2023-03-29T14:42:27.000Z,16.11
2023-03-29T14:45:02.804Z,16.06
2023-03-29T14:47:34.018Z,15.99
2023-03-29T14:50:02.075Z,15.95
2023-03-29T14:52:32.002Z,15.98
2023-03-29T14:55:02.324Z,15.91
2023-03-29T14:57:36.813Z,15.86
2023-03-29T15:00:24.818Z,15.78
2023-03-29T15:03:03.039Z,15.71
2023-03-29T15:05:41.342Z,15.64
2023-03-29T15:08:15.236Z,15.59
2023-03-29T15:10:44.878Z,15.55
2023-03-29T15:13:20.168Z,15.55
2023-03-29T15:15:51.449Z,15.55
2023-03-29T15:18:22.860Z,15.51
2023-03-29T15:20:51.622Z,15.49
2023-03-29T15:23:25.954Z,15.43
2023-03-29T15:25:59.021Z,15.41
2023-03-29T15:28:45.239Z,15.40
2023-03-29T15:31:15.659Z,15.31
2023-03-29T15:33:43.431Z,15.30
2023-03-29T15:36:12.664Z,15.27
2023-03-29T15:38:44.635Z,15.26
2023-03-29T15:41:16.465Z,15.20
2023-03-29T15:43:43.911Z,15.17
2023-03-29T15:46:14.192Z,15.22
2023-03-29T15:48:42.417Z,15.20
2023-03-29T15:51:12.759Z,15.10
2023-03-29T15:53:40.403Z,15.02
2023-03-29T15:56:11.744Z,14.95
2023-03-29T15:58:39.515Z,14.91
2023-03-29T16:01:39.734Z,14.92
2023-03-29T16:04:10.614Z,14.76
2023-03-29T16:06:38.552Z,14.77
2023-03-29T16:09:07.342Z,14.72
2023-03-29T16:11:35.601Z,14.74
2023-03-29T16:14:03.079Z,14.78
2023-03-29T16:16:30.556Z,14.72
2023-03-29T16:18:57.957Z,14.76
2023-03-29T16:21:25.891Z,14.74
2023-03-29T16:23:53.434Z,14.71
2023-03-29T16:26:21.944Z,14.70
2023-03-29T16:28:49.385Z,14.73
2023-03-29T16:31:16.937Z,14.70
2023-03-29T16:33:44.641Z,14.72
2023-03-29T16:36:12.499Z,14.70
2023-03-29T16:38:40.109Z,14.71
2023-03-29T16:41:19.830Z,14.74
2023-03-29T16:43:48.072Z,14.70
2023-03-29T16:46:16.077Z,14.70
2023-03-29T16:48:43.706Z,14.70
2023-03-29T16:51:11.648Z,14.69
2023-03-29T16:53:45.659Z,14.70
2023-03-29T16:56:13.040Z,14.66
2023-03-29T16:58:41.356Z,14.59
2023-03-29T17:01:15.048Z,14.61
2023-03-29T17:03:43.613Z,14.61
2023-03-29T17:06:12.541Z,14.58
2023-03-29T17:08:40.222Z,14.53
2023-03-29T17:11:07.876Z,14.51
2023-03-29T17:13:35.393Z,14.51
2023-03-29T17:16:03.003Z,14.44
2023-03-29T17:18:31.739Z,14.39
2023-03-29T17:20:59.532Z,14.33
2023-03-29T17:23:27.003Z,14.35
2023-03-29T17:25:57.225Z,14.29
2023-03-29T17:28:26.862Z,14.24
2023-03-29T17:30:54.483Z,14.19
2023-03-29T17:33:22.780Z,14.13
2023-03-29T17:35:52.987Z,14.03
2023-03-29T17:38:21.487Z,13.96
2023-03-29T17:40:53.508Z,13.87
2023-03-29T17:43:21.645Z,13.80
2023-03-29T17:45:53.210Z,13.78
2023-03-29T17:48:21.157Z,13.75
2023-03-29T17:50:48.469Z,13.73
2023-03-29T17:53:16.036Z,13.73
2023-03-29T17:55:43.405Z,13.70
2023-03-29T17:58:11.365Z,13.73
2023-03-29T18:00:38.881Z,13.65
2023-03-29T18:03:06.519Z,13.65
2023-03-29T18:05:37.152Z,13.62
2023-03-29T18:08:22.911Z,13.52
2023-03-29T18:10:50.546Z,13.52
2023-03-29T18:13:18.060Z,13.58
2023-03-29T18:15:45.650Z,13.59
2023-03-29T18:18:13.225Z,13.56
2023-03-29T18:20:40.601Z,13.54
2023-03-29T18:23:08.026Z,13.54
2023-03-29T18:26:04.918Z,13.56
2023-03-29T18:28:32.813Z,13.56
2023-03-29T18:31:00.339Z,13.56
2023-03-29T18:33:28.247Z,13.54
2023-03-29T18:35:55.892Z,13.60
2023-03-29T18:38:23.444Z,13.61
2023-03-29T18:40:51.785Z,13.65
2023-03-29T18:43:19.408Z,13.64
2023-03-29T18:45:47.748Z,13.62
2023-03-29T18:51:01.216Z,13.67
2023-03-29T18:53:29.777Z,13.71
2023-03-29T18:55:57.941Z,13.77
2023-03-29T18:58:25.307Z,13.72
2023-03-29T19:00:52.739Z,13.69
2023-03-29T19:03:20.393Z,13.67
2023-03-29T19:05:54.639Z,13.65
2023-03-29T19:08:23.276Z,13.60
2023-03-29T19:10:51.083Z,13.61
2023-03-29T19:13:18.572Z,13.69
2023-03-29T19:15:46.234Z,13.68
2023-03-29T19:18:13.688Z,13.65
2023-03-29T19:20:41.240Z,13.65
2023-03-29T19:23:08.720Z,13.72
2023-03-29T19:25:36.799Z,13.72
2023-03-29T19:28:05.157Z,13.68
2023-03-29T19:30:34.959Z,13.67
2023-03-29T19:33:02.763Z,13.63
2023-03-29T19:35:51.721Z,13.68
2023-03-29T19:38:20.048Z,13.59
2023-03-29T19:40:49.404Z,13.59
2023-03-29T19:43:18.576Z,13.54
2023-03-29T19:45:48.361Z,13.55
2023-03-29T19:48:22.322Z,13.53
2023-03-29T19:50:50.775Z,13.48
2023-03-29T19:53:18.167Z,13.48
2023-03-29T19:55:45.723Z,13.46
2023-03-29T19:58:13.457Z,13.46
2023-03-29T20:00:42.043Z,13.34
2023-03-29T20:03:10.011Z,13.28
2023-03-29T20:05:38.963Z,13.25
2023-03-29T20:08:07.373Z,13.23
2023-03-29T20:10:35.701Z,13.22
2023-03-29T20:13:03.715Z,13.10
2023-03-29T20:15:30.911Z,13.09
2023-03-29T20:17:59.889Z,13.06
2023-03-29T20:20:27.637Z,13.11
2023-03-29T20:22:58.637Z,13.06
2023-03-29T20:25:26.127Z,13.04
2023-03-29T20:27:53.644Z,12.99
2023-03-29T20:30:21.197Z,12.94
2023-03-29T20:32:48.604Z,12.84
2023-03-29T20:35:16.101Z,12.75
2023-03-29T20:37:43.544Z,12.77
2023-03-29T20:40:11.637Z,12.77
2023-03-29T20:42:39.824Z,12.70
2023-03-29T20:45:08.271Z,12.64
2023-03-29T20:47:42.666Z,12.48
2023-03-29T20:50:10.870Z,12.46
2023-03-29T20:52:38.633Z,12.40
2023-03-29T20:55:06.289Z,12.35
2023-03-29T20:57:34.005Z,12.27
2023-03-29T21:00:02.201Z,12.21
2023-03-29T21:02:30.776Z,12.18
2023-03-29T21:05:00.624Z,12.16
2023-03-29T21:07:29.177Z,12.24
2023-03-29T21:09:56.680Z,12.19
2023-03-29T21:12:24.150Z,12.06
2023-03-29T21:14:51.702Z,12.04
2023-03-29T21:17:19.709Z,12.06
2023-03-29T21:19:47.056Z,12.06
2023-03-29T21:22:14.799Z,12.05
2023-03-29T21:24:42.261Z,11.98
2023-03-29T21:27:10.094Z,11.97
2023-03-29T21:29:37.474Z,12.03
2023-03-29T21:32:05.078Z,12.00
2023-03-29T21:34:32.620Z,12.01
2023-03-29T21:37:00.006Z,12.04
2023-03-29T21:39:28.082Z,12.07
2023-03-29T21:41:55.692Z,12.09
2023-03-29T21:44:23.164Z,12.03
2023-03-29T21:46:50.705Z,11.97
2023-03-29T21:49:18.254Z,12.00
2023-03-29T21:51:45.653Z,11.97
2023-03-29T21:54:13.153Z,12.04
2023-03-29T21:56:40.739Z,11.97
2023-03-29T21:59:08.189Z,12.02
2023-03-29T22:01:36.017Z,12.07
2023-03-29T22:04:04.608Z,12.05
2023-03-29T22:06:32.235Z,12.01
2023-03-29T22:09:00.929Z,12.02
2023-03-29T22:11:31.383Z,12.01
2023-03-29T22:13:58.845Z,11.91
2023-03-29T22:16:26.294Z,11.88
2023-03-29T22:18:54.586Z,11.85
2023-03-29T22:21:25.236Z,11.76
2023-03-29T22:23:55.237Z,11.71
2023-03-29T22:26:27.806Z,11.59
2023-03-29T22:28:56.058Z,11.53
2023-03-29T22:31:26.223Z,11.46
2023-03-29T22:33:54.464Z,11.48
2023-03-29T22:36:23.379Z,11.38
2023-03-29T22:38:52.292Z,11.28
2023-03-29T22:41:23.014Z,11.35
2023-03-29T22:43:55.066Z,11.30
2023-03-29T22:46:24.053Z,11.30
2023-03-29T22:48:51.580Z,11.16
2023-03-29T22:51:20.218Z,11.25
2023-03-29T22:53:47.907Z,11.25
2023-03-29T22:56:17.140Z,11.28
2023-03-29T22:58:45.062Z,11.33
2023-03-29T23:01:13.006Z,11.32
2023-03-29T23:03:40.767Z,11.34
2023-03-29T23:06:08.499Z,11.35
2023-03-29T23:08:36.497Z,11.29
2023-03-29T23:11:05.012Z,11.38
2023-03-29T23:13:33.748Z,11.41
2023-03-29T23:16:03.912Z,11.44
2023-03-29T23:18:35.041Z,11.50
2023-03-29T23:21:05.379Z,11.52
2023-03-29T23:23:33.878Z,11.60
2023-03-29T23:26:02.059Z,11.56
2023-03-29T23:28:30.865Z,11.59
2023-03-29T23:31:03.407Z,11.58
2023-03-29T23:33:33.762Z,11.68
2023-03-29T23:36:05.613Z,11.52
2023-03-29T23:38:34.831Z,11.60
2023-03-29T23:41:04.990Z,11.53
2023-03-29T23:43:35.236Z,11.51
2023-03-29T23:46:05.400Z,11.51
2023-03-29T23:48:34.506Z,11.53
2023-03-29T23:51:03.365Z,11.55
2023-03-29T23:53:32.325Z,11.51
2023-03-29T23:56:01.627Z,11.50
2023-03-29T23:58:31.185Z,11.50
